Maxaranguape, Brazil
Current Conditions -  °F | °C
As of 12:00 PM on Wednesday 22 Oct 2014 (Local Time) from SBNT Reporting Station
Broken Clouds Broken Clouds  
Wind Chill: 86°   Ceiling: 3000
Heat Index: 88°   Visibility: 6mi
Dew Point: 66°   Wind: 16mph
Humidity: 51%   Direction: 110°ESE
Pressure: 29.97"   Gusts: NA
Location:  5.46°S, 35.29°W
Report Text: SBNT 221500Z 11014KT 9999 BKN030 30/19 Q1015
Loading
Personal Weather Stations






























Interactive Weather Map
Tropical Storm Tracking
New forecast layout! Learn more

10-Day Weather Forecast

Advertisements
Track Severe Weather on mobile